createdAt,value
2023-03-11T00:03:49.801Z,96.00
2023-03-11T00:07:53.353Z,97.51
2023-03-11T00:11:55.039Z,97.66
2023-03-11T00:15:57.331Z,98.84
2023-03-11T00:20:15.304Z,100.00
2023-03-11T00:24:18.137Z,100.00
2023-03-11T00:28:19.652Z,100.00
2023-03-11T00:37:33.525Z,100.00
2023-03-11T00:41:36.649Z,100.00
2023-03-11T00:45:38.480Z,100.00
2023-03-11T00:49:40.258Z,100.00
2023-03-11T00:53:42.742Z,100.00
2023-03-11T00:57:45.613Z,100.00
2023-03-11T01:01:47.256Z,100.00
2023-03-11T01:05:48.777Z,100.00
2023-03-11T01:09:50.257Z,100.00
2023-03-11T01:13:53.116Z,100.00
2023-03-11T01:22:19.758Z,100.00
2023-03-11T01:26:21.223Z,100.00
2023-03-11T01:30:25.350Z,100.00
2023-03-11T01:34:26.830Z,100.00
2023-03-11T01:38:28.402Z,100.00
2023-03-11T01:42:29.869Z,100.00
2023-03-11T01:46:37.616Z,100.00
2023-03-11T01:50:43.458Z,100.00
2023-03-11T01:54:44.982Z,100.00
2023-03-11T01:58:50.232Z,100.00
2023-03-11T02:02:55.527Z,100.00
2023-03-11T02:06:57.457Z,100.00
2023-03-11T02:10:58.926Z,100.00
2023-03-11T02:15:00.497Z,100.00
2023-03-11T02:19:11.439Z,100.00
2023-03-11T02:23:14.289Z,100.00
2023-03-11T02:27:19.813Z,100.00
2023-03-11T02:31:22.493Z,100.00
2023-03-11T02:35:24.316Z,100.00
2023-03-11T02:39:30.376Z,100.00
2023-03-11T02:43:40.161Z,100.00
2023-03-11T02:47:41.888Z,100.00
2023-03-11T02:51:43.397Z,100.00
2023-03-11T02:55:44.842Z,100.00
2023-03-11T02:59:47.623Z,100.00
2023-03-11T03:03:49.097Z,100.00
2023-03-11T03:07:51.439Z,100.00
2023-03-11T03:11:52.937Z,100.00
2023-03-11T03:15:55.768Z,100.00
2023-03-11T03:19:57.223Z,100.00
2023-03-11T03:23:58.664Z,100.00
2023-03-11T03:28:00.361Z,100.00
2023-03-11T03:32:03.287Z,100.00
2023-03-11T03:36:07.077Z,100.00
2023-03-11T03:40:10.312Z,100.00
2023-03-11T03:44:11.817Z,100.00
2023-03-11T03:48:14.786Z,100.00
2023-03-11T03:52:16.369Z,100.00
2023-03-11T03:56:18.814Z,100.00
2023-03-11T04:00:20.764Z,100.00
2023-03-11T04:04:23.690Z,100.00
2023-03-11T04:08:25.135Z,100.00
2023-03-11T04:12:26.688Z,100.00
2023-03-11T04:16:28.448Z,100.00
2023-03-11T04:20:31.336Z,100.00
2023-03-11T04:24:32.877Z,100.00
2023-03-11T04:28:34.349Z,100.00
2023-03-11T04:32:35.827Z,100.00
2023-03-11T04:36:38.891Z,100.00
2023-03-11T04:40:40.454Z,100.00
2023-03-11T04:44:41.897Z,100.00
2023-03-11T04:48:43.349Z,100.00
2023-03-11T04:52:46.578Z,100.00
2023-03-11T04:56:48.022Z,100.00
2023-03-11T05:00:49.512Z,100.00
2023-03-11T05:04:51.029Z,100.00
2023-03-11T05:08:53.916Z,100.00
2023-03-11T05:12:55.349Z,100.00
2023-03-11T05:16:56.963Z,100.00
2023-03-11T05:20:58.516Z,100.00
2023-03-11T05:25:01.321Z,100.00
2023-03-11T05:29:02.814Z,100.00
2023-03-11T05:33:04.432Z,100.00
2023-03-11T05:37:06.219Z,99.93
2023-03-11T05:41:09.021Z,99.41
2023-03-11T05:45:11.049Z,99.17
2023-03-11T05:49:12.487Z,98.43
2023-03-11T05:53:13.921Z,98.39
2023-03-11T05:57:16.882Z,98.29
2023-03-11T06:01:20.009Z,98.33
2023-03-11T06:05:21.526Z,97.83
2023-03-11T06:09:23.005Z,98.63
2023-03-11T06:13:25.840Z,97.96
2023-03-11T06:17:29.334Z,97.28
2023-03-11T06:21:32.060Z,97.11
2023-03-11T06:25:33.564Z,96.78
2023-03-11T06:29:36.340Z,96.33
2023-03-11T06:33:38.010Z,96.98
2023-03-11T06:37:39.890Z,96.24
2023-03-11T06:41:41.460Z,96.87
2023-03-11T06:45:45.865Z,96.57
2023-03-11T06:49:47.412Z,96.66
2023-03-11T06:53:49.399Z,96.83
2023-03-11T06:57:50.950Z,96.69
2023-03-11T07:01:54.318Z,96.42
2023-03-11T07:05:55.796Z,96.78
2023-03-11T07:09:57.273Z,96.78
2023-03-11T07:13:58.988Z,96.76
2023-03-11T07:18:01.929Z,95.61
2023-03-11T07:22:03.450Z,96.26
2023-03-11T07:26:05.092Z,97.61
2023-03-11T07:30:08.266Z,96.93
2023-03-11T07:34:12.863Z,96.90
2023-03-11T07:38:14.405Z,95.88
2023-03-11T07:42:15.880Z,95.79
2023-03-11T07:46:17.722Z,95.39
2023-03-11T07:50:20.752Z,95.52
2023-03-11T07:54:22.388Z,95.22
2023-03-11T07:58:24.587Z,94.76
2023-03-11T08:02:26.177Z,93.09
2023-03-11T08:06:31.740Z,93.06
2023-03-11T08:10:36.034Z,93.28
2023-03-11T08:14:37.518Z,94.34
2023-03-11T08:18:38.955Z,94.31
2023-03-11T08:22:55.681Z,94.29
2023-03-11T08:26:59.431Z,94.22
2023-03-11T08:31:01.499Z,94.25
2023-03-11T08:35:03.225Z,94.58
2023-03-11T08:39:06.557Z,95.18
2023-03-11T08:43:08.144Z,94.12
2023-03-11T08:47:10.099Z,94.25
2023-03-11T08:51:12.743Z,93.06
2023-03-11T08:55:18.129Z,94.16
2023-03-11T08:59:19.762Z,94.46
2023-03-11T09:03:21.477Z,94.18
2023-03-11T09:07:23.250Z,95.12
2023-03-11T09:11:26.207Z,96.75
2023-03-11T09:15:28.096Z,97.65
2023-03-11T09:19:29.689Z,97.89
2023-03-11T09:23:31.281Z,98.87
2023-03-11T09:27:34.280Z,98.16
2023-03-11T09:31:35.955Z,97.67
2023-03-11T09:35:38.469Z,97.86
2023-03-11T09:39:40.027Z,98.32
2023-03-11T09:43:54.375Z,98.61
2023-03-11T09:48:08.331Z,97.58
2023-03-11T09:52:11.541Z,96.75
2023-03-11T09:56:16.750Z,96.06
2023-03-11T10:00:23.170Z,95.62
2023-03-11T10:04:29.240Z,95.34
2023-03-11T10:08:38.283Z,93.22
2023-03-11T10:12:51.826Z,92.09
2023-03-11T10:17:01.712Z,91.29
2023-03-11T10:21:11.564Z,92.27
2023-03-11T10:25:16.076Z,89.86
2023-03-11T10:29:23.371Z,89.49
2023-03-11T10:33:32.577Z,89.38
2023-03-11T10:37:48.789Z,90.43
2023-03-11T10:41:55.097Z,88.75
2023-03-11T10:45:56.693Z,89.00
2023-03-11T10:49:59.667Z,89.81
2023-03-11T10:54:03.277Z,88.10
2023-03-11T10:58:07.386Z,87.42
2023-03-11T11:02:23.991Z,85.93
2023-03-11T11:06:29.152Z,86.95
2023-03-11T11:10:34.781Z,87.56
2023-03-11T11:14:44.806Z,88.31
2023-03-11T11:18:50.084Z,88.31
2023-03-11T11:22:56.041Z,88.88
2023-03-11T11:27:05.696Z,88.55
2023-03-11T11:31:21.853Z,88.31
2023-03-11T11:35:24.601Z,86.46
2023-03-11T11:39:30.698Z,84.73
2023-03-11T11:43:49.986Z,82.64
2023-03-11T11:47:56.030Z,84.15
2023-03-11T11:52:02.906Z,85.01
2023-03-11T11:56:05.916Z,84.62
2023-03-11T12:00:17.903Z,86.07
2023-03-11T12:04:43.683Z,83.72
2023-03-11T12:08:51.766Z,85.30
2023-03-11T12:13:14.395Z,85.93
2023-03-11T12:17:20.883Z,82.81
2023-03-11T12:21:39.471Z,81.43
2023-03-11T12:25:53.252Z,82.95
2023-03-11T12:29:59.960Z,84.07
2023-03-11T12:34:04.060Z,86.88
2023-03-11T12:38:16.165Z,88.79
2023-03-11T12:42:20.634Z,88.08
2023-03-11T12:47:10.342Z,89.51
2023-03-11T12:51:40.184Z,87.83
2023-03-11T12:56:01.707Z,88.30
2023-03-11T13:00:13.108Z,86.67
2023-03-11T13:04:24.394Z,85.89
2023-03-11T13:08:28.440Z,85.02
2023-03-11T13:12:42.355Z,82.79
2023-03-11T13:16:45.342Z,80.71
2023-03-11T13:20:56.719Z,81.46
2023-03-11T13:24:58.239Z,81.80
2023-03-11T13:29:36.903Z,83.37
2023-03-11T13:33:49.345Z,84.44
2023-03-11T13:38:07.354Z,84.92
2023-03-11T13:42:17.436Z,85.24
2023-03-11T13:46:28.484Z,83.40
2023-03-11T13:50:34.539Z,82.30
2023-03-11T13:54:46.580Z,82.26
2023-03-11T13:58:48.028Z,83.67
2023-03-11T14:02:52.682Z,79.89
2023-03-11T14:06:54.159Z,78.76
2023-03-11T14:10:58.361Z,78.06
2023-03-11T14:15:04.624Z,79.68
2023-03-11T14:19:07.270Z,76.31
2023-03-11T14:23:18.527Z,77.19
2023-03-11T14:27:21.365Z,76.12
2023-03-11T14:31:29.284Z,77.86
2023-03-11T14:35:32.938Z,77.24
2023-03-11T14:39:36.147Z,76.91
2023-03-11T14:43:44.614Z,77.98
2023-03-11T14:47:51.279Z,76.76
2023-03-11T14:51:58.458Z,77.04
2023-03-11T14:56:04.090Z,76.27
2023-03-11T15:00:15.262Z,75.92
2023-03-11T15:04:25.924Z,77.29
2023-03-11T15:08:30.853Z,76.37
2023-03-11T15:12:34.370Z,76.70
2023-03-11T15:16:37.541Z,75.65
2023-03-11T15:20:39.158Z,75.30
2023-03-11T15:24:40.710Z,74.95
2023-03-11T15:28:42.474Z,74.73
2023-03-11T15:32:45.930Z,73.64
2023-03-11T15:36:59.763Z,75.35
2023-03-11T15:41:02.796Z,75.86
2023-03-11T15:45:13.050Z,75.73
2023-03-11T15:49:15.917Z,75.81
2023-03-11T15:53:17.455Z,75.99
2023-03-11T15:57:23.620Z,76.34
2023-03-11T16:01:25.212Z,76.32
2023-03-11T16:05:28.729Z,74.24
2023-03-11T16:09:30.219Z,75.52
2023-03-11T16:13:31.667Z,74.32
2023-03-11T16:17:48.391Z,75.51
2023-03-11T16:21:52.366Z,76.47
2023-03-11T16:25:58.643Z,75.76
2023-03-11T16:30:00.026Z,76.75
2023-03-11T16:34:01.518Z,77.44
2023-03-11T16:38:04.378Z,77.39
2023-03-11T16:42:06.012Z,76.07
2023-03-11T16:46:07.748Z,77.53
2023-03-11T16:50:10.800Z,77.78
2023-03-11T16:54:13.620Z,77.65
2023-03-11T16:58:15.508Z,78.92
2023-03-11T17:02:17.033Z,79.66
2023-03-11T17:06:19.625Z,80.30
2023-03-11T17:10:22.548Z,80.79
2023-03-11T17:14:24.322Z,81.02
2023-03-11T17:18:26.066Z,81.55
2023-03-11T17:22:27.599Z,82.27
2023-03-11T17:26:30.446Z,83.07
2023-03-11T17:30:37.221Z,83.98
2023-03-11T17:34:38.954Z,84.67
2023-03-11T17:38:40.468Z,85.02
2023-03-11T17:42:43.502Z,84.85
2023-03-11T17:46:45.018Z,85.69
2023-03-11T17:50:46.487Z,85.37
2023-03-11T17:54:48.139Z,84.98
2023-03-11T17:58:51.406Z,84.11
2023-03-11T18:02:52.894Z,84.08
2023-03-11T18:06:55.006Z,83.07
2023-03-11T18:11:00.398Z,81.84
2023-03-11T18:15:05.325Z,81.46
2023-03-11T18:19:06.876Z,82.33
2023-03-11T18:23:08.362Z,82.06
2023-03-11T18:27:09.873Z,82.22
2023-03-11T18:31:15.072Z,82.44
2023-03-11T18:35:16.594Z,82.85
2023-03-11T18:39:18.265Z,82.59
2023-03-11T18:43:19.715Z,83.34
2023-03-11T18:47:22.554Z,83.64
2023-03-11T18:51:24.225Z,84.16
2023-03-11T18:55:25.677Z,84.80
2023-03-11T18:59:27.158Z,85.12
2023-03-11T19:03:30.001Z,85.40
2023-03-11T19:07:31.602Z,85.60
2023-03-11T19:11:33.169Z,85.76
2023-03-11T19:15:38.742Z,85.88
2023-03-11T19:19:41.632Z,86.79
2023-03-11T19:23:44.018Z,87.94
2023-03-11T19:27:45.508Z,89.08
2023-03-11T19:31:46.965Z,89.51
2023-03-11T19:35:53.497Z,89.64
2023-03-11T19:39:54.944Z,89.48
2023-03-11T19:43:56.528Z,90.12
2023-03-11T19:47:58.229Z,90.52
2023-03-11T19:52:01.054Z,90.14
2023-03-11T19:56:02.874Z,90.56
2023-03-11T20:00:05.558Z,89.99
2023-03-11T20:04:07.065Z,89.68
2023-03-11T20:08:12.054Z,90.03
2023-03-11T20:12:13.825Z,90.51
2023-03-11T20:16:18.787Z,91.74
2023-03-11T20:20:20.582Z,92.74
2023-03-11T20:24:23.469Z,92.39
2023-03-11T20:28:24.968Z,93.06
2023-03-11T20:32:26.532Z,94.34
2023-03-11T20:36:31.708Z,95.70
2023-03-11T20:40:35.204Z,96.13
2023-03-11T20:44:36.735Z,95.09
2023-03-11T20:48:38.818Z,94.43
2023-03-11T20:52:40.429Z,95.10
2023-03-11T20:56:43.275Z,95.29
2023-03-11T21:00:44.820Z,96.43
2023-03-11T21:04:46.456Z,96.48
2023-03-11T21:08:48.275Z,96.35
2023-03-11T21:12:51.301Z,97.45
2023-03-11T21:16:52.833Z,96.15
2023-03-11T21:20:54.359Z,96.54
2023-03-11T21:24:56.166Z,97.14
2023-03-11T21:28:59.164Z,96.36
2023-03-11T21:33:00.847Z,95.78
2023-03-11T21:37:02.487Z,95.76
2023-03-11T21:41:06.215Z,96.11
2023-03-11T21:45:10.721Z,96.14
2023-03-11T21:49:12.358Z,96.61
2023-03-11T21:53:14.384Z,96.61
2023-03-11T21:57:15.895Z,96.28
2023-03-11T22:01:18.806Z,97.28
2023-03-11T22:05:20.471Z,97.99
2023-03-11T22:09:22.116Z,97.42
2023-03-11T22:13:24.665Z,97.55
2023-03-11T22:17:27.686Z,97.59
2023-03-11T22:21:29.198Z,96.64
2023-03-11T22:25:30.633Z,97.12
2023-03-11T22:29:32.128Z,94.05
2023-03-11T22:33:35.332Z,92.86
2023-03-11T22:37:36.777Z,90.92
2023-03-11T22:41:38.260Z,89.73
2023-03-11T22:45:39.737Z,89.45
2023-03-11T22:49:42.557Z,87.85
2023-03-11T22:53:45.038Z,86.42
2023-03-11T22:57:46.532Z,86.44
2023-03-11T23:01:47.969Z,86.18
2023-03-11T23:05:50.764Z,86.11
2023-03-11T23:09:54.054Z,86.72
2023-03-11T23:13:55.614Z,86.32
2023-03-11T23:17:57.151Z,85.40
2023-03-11T23:21:59.964Z,84.84
2023-03-11T23:26:08.016Z,84.18
2023-03-11T23:30:10.868Z,84.60
2023-03-11T23:34:12.326Z,84.47
2023-03-11T23:38:15.153Z,84.24
2023-03-11T23:42:25.519Z,84.36
2023-03-11T23:46:27.701Z,84.22
2023-03-11T23:50:29.143Z,84.27
2023-03-11T23:54:32.028Z,83.76
2023-03-11T23:58:33.555Z,83.85
